LFLBLFLY

Guest
Details From LFLB - Aix-Les-Bains
To LFLY - Lyon Bron
Flight Number -
Tags generated
Created
Modified
Stats Distance 40 nm / 74 km
Max Altitude 4,500 ft / 1,372 m
Waypoints 3
Social Downloads 0
Likes 0
Share VATSIM

Download

Looking for another format? Having issues loading an existing format? Contact us
Advertisement - Login to hide

Notes

Basic altitude profile: - Ascent Rate: 1000ft/min - Ascent Speed: 70kts - Cruise Altitude: 4500ft - Cruise Speed: 100kts - Descent Rate: 1000ft/min - Descent Speed: 70kts

Route

LFLB BELUS LFLY

ID Type Via Altitude Latitude Longitude Leg Dist Tot Dist Heading (true) Name
O LFLB APT - 0 ft / 0 m 45.63623˚ 5.88090˚ - 0 nm - Aix-Les-Bains
BELUS FIX - 4,500 ft / 1,372 m 45.67528˚ 5.59389˚ 12 nm 12 nm 281° / 281° -
O LFLY APT - 0 ft / 0 m 45.72717˚ 4.94427˚ 27 nm 39 nm 277° / 276° Lyon Bron

Altitude Profile

Advertisement - Login to hide

LFLB

Details ICAO LFLB (CMF)
Name Aix-Les-Bains
Region France
Timezone Europe/Paris (UTC+1.0)
Stats Elevation 779 ft / 237 m (AMSL)
Location 45.636234° 5.880898°
Runways 2
Magnetic Variation 1.691° E

METAR

LFLB 180330Z AUTO 22004KT 190V260 9999 FEW015 OVC086 00/M03 Q1029

Decode

TAF

TAF LFLB 172201Z 1722/1818 CNL

Decode

Departure Runways

ID Width Length Bearing (true) Bearing (mag) Surface Threshold Offset Overrun Length
18 148 ft / 45 m 5,452 ft / 1,662 m 176.72° 175.03° Asphalt 26 ft / 8 m 774 ft / 236 m
18L 197 ft / 60 m 2,309 ft / 704 m 176.70° 175.01° Grass 0 ft / 0 m 0 ft / 0 m
36 148 ft / 45 m 5,452 ft / 1,662 m 356.72° 355.03° Asphalt 23 ft / 7 m 456 ft / 139 m
36R 197 ft / 60 m 2,309 ft / 704 m 356.70° 355.01° Grass 315 ft / 96 m 0 ft / 0 m

LFLY

Details ICAO LFLY (LYN)
Name Lyon Bron
Region France
Timezone Europe/Paris (UTC+1.0)
Stats Elevation 659 ft / 201 m (AMSL)
Location 45.727171° 4.944274°
Runways 1
Magnetic Variation 1.451° E

METAR

LFLY 180330Z AUTO 13002KT 4100 -SN BR BKN029 BKN039 OVC046 00/00 Q1028 TEMPO 0500 SN OVC003

Decode

TAF

TAF AMD LFLY 180243Z 1802/1824 VRB02KT 7000 NSC TEMPO 1802/1804 2500 BR BKN002 BECMG 1802/1805 17006KT 2500 -SN OVC008 TEMPO 1805/1810 0500 SN OVC003 BECMG 1810/1812 4000 -RA BECMG 1812/1816 35012KT 7000 NSW

Decode

Destination Runways

ID Width Length Bearing (true) Bearing (mag) Surface Threshold Offset Overrun Length
16 148 ft / 45 m 5,972 ft / 1,820 m 163.44° 161.99° Asphalt 984 ft / 300 m 0 ft / 0 m
34 148 ft / 45 m 5,972 ft / 1,820 m 343.44° 341.99° Asphalt 984 ft / 300 m 0 ft / 0 m

Approach Navaids

Runway Type Ident Frequency Range Bearing (true) Bearing (mag) Slope Elevation
16 Localiser LBO 109.95 MHz 18 nm / 33 km 163.45° 162.00° - 653 ft / 199 m (AMSL)
16 DME LBO 109.95 MHz 18 nm / 33 km - - - 680 ft / 207 m (AMSL)
34 Localiser LY 111.30 MHz 18 nm / 33 km 343.44° 341.99° - 640 ft / 195 m (AMSL)
34 Glidescope LY 111.30 MHz 10 nm / 19 km 343.44° 341.99° 3.00° 659 ft / 201 m (AMSL)
34 DME LY 111.30 MHz 18 nm / 33 km - - - 715 ft / 218 m (AMSL)

Popular Alternatives